Suttons Bay, MI

2:19 AM EST on January 26, 2015 (GMT -0500)
KMISUTTO2 | Change Station
CLOSE
Current Station
Personal Weather Station
Location: Suttons Bay, MI
Elevation: 797 ft
Nearby Weather Stations

Elev 797 ft 45.01 °N, 85.64 °W | Updated 4 minutes ago

Clear
Clear
11.6 °F
Feels Like 12 °F
N
2.0
Wind Variable Wind from SSE
Gusts 4.0 mph

Today
High -- | Low -- °F
--% Chance of Precip.
Yesterday
High -- | Low -- °F
Precip. -- in
8:08 AM 5:41 PM
Waxing Crescent, 40% visible
Pressure 30.07 in
Visibility 10.0 miles
Clouds Clear
Windchill 12 °F
Dew Point 8 °F
Humidity 85%
Rainfall 0.00 in
Snow Depth Not available.
UV 0 out of 12
Pollen .10 out of 12
Air Quality Not available.
Flu Activity Not available.
METAR KTVC 260653Z 15007KT 10SM CLR M14/M17 A3003 RMK AO2 SLP181 T11441172

More Conditions Fewer Conditions

Pressure 30.07 in
Visibility 10.0 miles
Clouds Clear
Windchill 12 °F
Dew Point 8 °F
Humidity 85%
Rainfall 0.00 in
Snow Depth Not available.
UV 0 out of 12
Pollen .10 out of 12
Air Quality Not available.
Flu Activity Not available.
METAR KTVC 260653Z 15007KT 10SM CLR M14/M17 A3003 RMK AO2 SLP181 T11441172

More Conditions Fewer Conditions

Nowcast | as of 2:00 am EST on January 26, 2015

At 3 am...mostly clear. Temperature 11. Light winds. At 5 am...mostly clear. Temperature 10 above. Light winds. At 7 am...partly cloudy. Temperature 9 above. Light winds. At 9 am...mostly cloudy. Temperature 13. South winds 6 mph.

×

10-Day Weather Forecast

Almanac

Astronomy

Jan. 26, 2015 Rise Set
Actual Time
Civil Twilight
Nautical Twilight
Astronomical Twilight
Moon
Length of Visible Light
Length of Day
Tomorrow will be .
, % of the Moon is Illuminated

Today's Extremes

State Highs State Lows

Community

WunderPhotos

Upload Photos

1,790,155 photos uploaded!

WunderBlogs® & News

Nearby

Air Quality

  Air Quality AQ Index Pollutant
Not available.

Snow Depth

Station Depth Elevation

Earthquake Activity

City Distance Mag. Time & Date
Minimum magnitude displayed is 2.5.

Coastal Water Temperatures

Place Temperature

Nearby Weather Stations